createdAt,value
2023-08-08T00:00:36.511Z,101807.84
2023-08-08T00:03:06.572Z,101805.22
2023-08-08T00:05:34.567Z,101800.72
2023-08-08T00:08:02.619Z,101796.97
2023-08-08T00:10:30.564Z,101791.59
2023-08-08T00:12:58.539Z,101791.50
2023-08-08T00:15:26.578Z,101794.38
2023-08-08T00:17:54.570Z,101793.63
2023-08-08T00:20:23.914Z,101796.31
2023-08-08T00:22:51.873Z,101797.25
2023-08-08T00:25:19.916Z,101793.63
2023-08-08T00:27:47.927Z,101790.63
2023-08-08T00:30:15.906Z,101788.81
2023-08-08T00:32:43.887Z,101754.47
2023-08-08T00:35:11.941Z,101774.94
2023-08-08T00:37:41.237Z,101774.84
2023-08-08T00:40:10.333Z,101765.09
2023-08-08T00:42:38.311Z,101761.28
2023-08-08T00:45:06.879Z,101754.06
2023-08-08T00:47:35.214Z,101758.41
2023-08-08T00:50:03.658Z,101755.72
2023-08-08T00:52:31.657Z,101744.00
2023-08-08T00:55:01.162Z,101756.59
2023-08-08T00:57:29.063Z,101749.66
2023-08-08T00:59:57.004Z,101746.00
2023-08-08T01:02:24.996Z,101751.38
2023-08-08T01:04:52.970Z,101743.41
2023-08-08T01:07:25.513Z,101746.97
2023-08-08T01:09:57.108Z,101742.38
2023-08-08T01:12:26.844Z,101740.72
2023-08-08T01:14:54.863Z,101732.47
2023-08-08T01:17:22.856Z,101732.25
2023-08-08T01:19:50.953Z,101728.63
2023-08-08T01:22:25.196Z,101734.09
2023-08-08T01:24:54.671Z,101725.84
2023-08-08T01:27:22.585Z,101728.69
2023-08-08T01:29:50.574Z,101729.94
2023-08-08T01:32:18.483Z,101730.31
2023-08-08T01:34:46.449Z,101727.88
2023-08-08T01:37:17.184Z,101722.78
2023-08-08T01:39:45.144Z,101710.25
2023-08-08T01:42:14.603Z,101710.19
2023-08-08T01:44:43.376Z,101704.81
2023-08-08T01:47:11.357Z,101673.53
2023-08-08T01:49:39.275Z,101707.28
2023-08-08T01:52:07.760Z,101698.28
2023-08-08T01:54:35.726Z,101688.56
2023-08-08T01:57:03.682Z,101697.50
2023-08-08T01:59:33.073Z,101692.19
2023-08-08T02:02:01.201Z,101688.84
2023-08-08T02:04:29.719Z,101689.78
2023-08-08T02:06:57.656Z,101697.78
2023-08-08T02:09:25.588Z,101688.72
2023-08-08T02:11:53.537Z,101683.28
2023-08-08T02:14:21.564Z,101681.53
2023-08-08T02:16:50.989Z,101671.94
2023-08-08T02:19:18.883Z,101676.34
2023-08-08T02:21:46.795Z,101676.16
2023-08-08T02:24:14.766Z,101675.28
2023-08-08T02:26:42.692Z,101665.41
2023-08-08T02:29:10.631Z,101665.50
2023-08-08T02:31:38.619Z,101664.03
2023-08-08T02:34:07.860Z,101675.38
2023-08-08T02:36:35.943Z,101660.19
2023-08-08T02:39:04.369Z,101666.44
2023-08-08T02:41:32.264Z,101662.69
2023-08-08T02:44:00.175Z,101658.25
2023-08-08T02:46:28.100Z,101663.66
2023-08-08T02:48:56.150Z,101649.06
2023-08-08T02:51:25.467Z,101646.38
2023-08-08T02:53:53.404Z,101650.78
2023-08-08T02:56:21.389Z,101648.97
2023-08-08T02:58:49.396Z,101649.84
2023-08-08T03:01:17.652Z,101652.53
2023-08-08T03:03:45.604Z,101608.00
2023-08-08T03:06:13.541Z,101637.06
2023-08-08T03:08:41.823Z,101638.88
2023-08-08T03:11:09.800Z,101641.38
2023-08-08T03:13:38.371Z,101639.63
2023-08-08T03:16:06.610Z,101634.09
2023-08-08T03:18:34.652Z,101633.16
2023-08-08T03:21:02.618Z,101628.44
2023-08-08T03:23:32.036Z,101630.19
2023-08-08T03:26:01.408Z,101624.81
2023-08-08T03:28:29.373Z,101626.34
2023-08-08T03:30:57.372Z,101627.28
2023-08-08T03:33:25.413Z,101614.53
2023-08-08T03:35:53.335Z,101615.28
2023-08-08T03:38:21.257Z,101575.44
2023-08-08T03:40:49.170Z,101601.06
2023-08-08T03:43:18.512Z,101605.38
2023-08-08T03:45:47.705Z,101557.56
2023-08-08T03:48:15.771Z,101591.94
2023-08-08T03:50:43.745Z,101594.50
2023-08-08T03:53:11.672Z,101557.00
2023-08-08T03:55:39.655Z,101590.84
2023-08-08T03:58:07.656Z,101579.41
2023-08-08T04:00:37.330Z,101583.84
2023-08-08T04:03:05.565Z,101579.31
2023-08-08T04:05:33.596Z,101573.84
2023-08-08T04:08:01.538Z,101577.50
2023-08-08T04:10:29.512Z,101574.59
2023-08-08T04:12:57.473Z,101572.88
2023-08-08T04:15:25.536Z,101570.06
2023-08-08T04:17:54.819Z,101562.88
2023-08-08T04:20:22.797Z,101558.34
2023-08-08T04:22:50.711Z,101557.47
2023-08-08T04:25:18.837Z,101555.56
2023-08-08T04:27:46.764Z,101556.41
2023-08-08T04:30:15.313Z,101553.63
2023-08-08T04:32:43.238Z,101552.66
2023-08-08T04:35:12.603Z,101555.38
2023-08-08T04:37:41.102Z,101553.44
2023-08-08T04:40:10.655Z,101547.94
2023-08-08T04:42:38.656Z,101545.25
2023-08-08T04:45:08.418Z,101540.38
2023-08-08T04:47:36.453Z,101553.44
2023-08-08T04:50:04.662Z,101560.28
2023-08-08T04:52:35.055Z,101562.84
2023-08-08T04:55:02.995Z,101555.66
2023-08-08T04:57:30.971Z,101558.13
2023-08-08T04:59:59.037Z,101554.38
2023-08-08T05:02:27.006Z,101548.03
2023-08-08T05:04:55.057Z,101551.50
2023-08-08T05:07:23.100Z,101549.75
2023-08-08T05:09:53.073Z,101541.47
2023-08-08T05:12:21.247Z,101539.56
2023-08-08T05:14:49.296Z,101545.81
2023-08-08T05:17:17.447Z,101543.13
2023-08-08T05:19:45.679Z,101538.69
2023-08-08T05:22:13.736Z,101536.75
2023-08-08T05:24:42.246Z,101524.91
2023-08-08T05:27:12.769Z,101520.50
2023-08-08T05:29:42.156Z,101527.59
2023-08-08T05:32:10.327Z,101525.88
2023-08-08T05:34:38.249Z,101526.53
2023-08-08T05:37:16.473Z,101523.72
2023-08-08T05:39:46.187Z,101527.19
2023-08-08T05:42:15.682Z,101513.94
2023-08-08T05:44:44.256Z,101523.72
2023-08-08T05:47:12.320Z,101527.31
2023-08-08T05:49:42.873Z,101517.50
2023-08-08T05:52:11.484Z,101526.44
2023-08-08T05:54:39.657Z,101516.53
2023-08-08T05:57:08.606Z,101514.59
2023-08-08T05:59:38.100Z,101523.53
2023-08-08T06:02:07.055Z,101523.53
2023-08-08T06:04:36.385Z,101518.91
2023-08-08T06:07:05.138Z,101517.97
2023-08-08T06:09:34.434Z,101513.66
2023-08-08T06:12:02.789Z,101512.28
2023-08-08T06:14:30.965Z,101511.28
2023-08-08T06:17:00.912Z,101500.50
2023-08-08T06:19:30.073Z,101503.97
2023-08-08T06:21:58.386Z,101499.75
2023-08-08T06:24:26.864Z,101514.66
2023-08-08T06:26:54.942Z,101514.34
2023-08-08T06:29:22.905Z,101484.31
2023-08-08T06:31:50.914Z,101480.75
2023-08-08T06:34:20.320Z,101511.56
2023-08-08T06:36:48.979Z,101496.03
2023-08-08T06:39:16.922Z,101502.19
2023-08-08T06:41:44.897Z,101498.56
2023-08-08T06:44:12.974Z,101498.56
2023-08-08T06:46:40.965Z,101494.97
2023-08-08T06:49:10.057Z,101492.09
2023-08-08T06:51:42.508Z,101488.03
2023-08-08T06:54:16.895Z,101490.63
2023-08-08T06:56:45.923Z,101490.63
2023-08-08T06:59:13.991Z,101495.81
2023-08-08T07:01:42.723Z,101485.97
2023-08-08T07:04:10.846Z,101484.03
2023-08-08T07:06:49.012Z,101485.56
2023-08-08T07:09:17.808Z,101478.13
2023-08-08T07:11:46.882Z,101473.38
2023-08-08T07:14:16.477Z,101481.16
2023-08-08T07:16:48.739Z,101488.94
2023-08-08T07:19:18.272Z,101488.63
2023-08-08T07:21:49.144Z,101480.63
2023-08-08T07:24:18.454Z,101484.84
2023-08-08T07:26:46.783Z,101478.25
2023-08-08T07:29:15.755Z,101487.44
2023-08-08T07:31:43.764Z,101480.41
2023-08-08T07:34:11.947Z,101463.78
2023-08-08T07:36:39.923Z,101470.38
2023-08-08T07:39:10.587Z,101459.59
2023-08-08T07:41:38.700Z,101447.22
2023-08-08T07:44:06.880Z,101462.19
2023-08-08T07:46:34.850Z,101454.75
2023-08-08T07:49:04.710Z,101446.22
2023-08-08T07:51:32.764Z,101452.81
2023-08-08T07:54:01.544Z,101448.19
2023-08-08T07:56:31.076Z,101448.81
2023-08-08T07:58:59.106Z,101451.38
2023-08-08T08:01:28.321Z,101449.56
2023-08-08T08:03:56.456Z,101454.63
2023-08-08T08:06:24.437Z,101460.69
2023-08-08T08:08:52.337Z,101458.00
2023-08-08T08:11:20.716Z,101456.38
2023-08-08T08:13:50.185Z,101456.81
2023-08-08T08:16:18.187Z,101452.81
2023-08-08T08:18:46.176Z,101445.13
2023-08-08T08:21:15.466Z,101431.53
2023-08-08T08:23:43.441Z,101419.22
2023-08-08T08:26:11.509Z,101452.56
2023-08-08T08:28:40.985Z,101451.78
2023-08-08T08:31:10.534Z,101451.97
2023-08-08T08:33:38.625Z,101450.03
2023-08-08T08:36:07.061Z,101455.09
2023-08-08T08:38:35.005Z,101451.50
2023-08-08T08:41:02.929Z,101459.75
2023-08-08T08:43:30.938Z,101455.22
2023-08-08T08:45:58.939Z,101454.22
2023-08-08T08:48:28.347Z,101452.03
2023-08-08T08:50:56.996Z,101453.66
2023-08-08T08:53:24.938Z,101450.22
2023-08-08T08:55:53.184Z,101454.00
2023-08-08T08:58:21.106Z,101448.72
2023-08-08T09:00:49.496Z,101446.75
2023-08-08T09:03:17.825Z,101448.47
2023-08-08T09:05:47.311Z,101453.53
2023-08-08T09:08:16.299Z,101424.63
2023-08-08T09:10:44.390Z,101434.47
2023-08-08T09:13:12.609Z,101433.31
2023-08-08T09:15:40.979Z,101435.94
2023-08-08T09:18:09.328Z,101425.16
2023-08-08T09:20:37.345Z,101433.91
2023-08-08T09:23:07.219Z,101438.66
2023-08-08T09:25:35.186Z,101422.38
2023-08-08T09:28:03.105Z,101437.44
2023-08-08T09:30:33.714Z,101438.94
2023-08-08T09:33:02.519Z,101436.53
2023-08-08T09:35:31.328Z,101440.38
2023-08-08T09:37:59.281Z,101430.97
2023-08-08T09:40:28.574Z,101423.47
2023-08-08T09:42:56.532Z,101428.94
2023-08-08T09:45:24.917Z,101424.84
2023-08-08T09:47:53.447Z,101423.75
2023-08-08T09:50:21.600Z,101407.66
2023-08-08T09:52:49.732Z,101407.91
2023-08-08T09:55:17.678Z,101416.88
2023-08-08T09:57:47.032Z,101411.63
2023-08-08T10:00:18.017Z,101411.56
2023-08-08T10:02:46.600Z,101413.56
2023-08-08T10:05:15.018Z,101414.47
2023-08-08T10:07:42.972Z,101412.25
2023-08-08T10:10:11.849Z,101406.53
2023-08-08T10:12:40.212Z,101391.19
2023-08-08T10:15:11.252Z,101418.91
2023-08-08T10:17:39.786Z,101419.38
2023-08-08T10:20:12.690Z,101420.09
2023-08-08T10:22:44.149Z,101423.16
2023-08-08T10:25:19.288Z,101418.03
2023-08-08T10:27:47.301Z,101414.81
2023-08-08T10:30:17.193Z,101414.97
2023-08-08T10:32:47.688Z,101410.28
2023-08-08T10:35:15.781Z,101411.75
2023-08-08T10:37:54.212Z,101411.75
2023-08-08T10:40:22.248Z,101415.66
2023-08-08T10:42:50.220Z,101416.41
2023-08-08T10:45:19.622Z,101413.81
2023-08-08T10:47:47.656Z,101424.00
2023-08-08T10:50:16.924Z,101411.81
2023-08-08T10:52:55.491Z,101425.69
2023-08-08T10:55:24.194Z,101420.84
2023-08-08T10:57:59.493Z,101430.47
2023-08-08T11:00:30.727Z,101446.53
2023-08-08T11:02:59.139Z,101437.34
2023-08-08T11:05:27.538Z,101438.97
2023-08-08T11:07:55.883Z,101441.28
2023-08-08T11:10:24.499Z,101436.34
2023-08-08T11:12:59.817Z,101428.72
2023-08-08T11:15:29.678Z,101420.81
2023-08-08T11:17:57.898Z,101413.56
2023-08-08T11:20:26.022Z,101405.59
2023-08-08T11:22:54.837Z,101417.03
2023-08-08T11:25:23.106Z,101409.53
2023-08-08T11:27:52.322Z,101420.22
2023-08-08T11:30:20.382Z,101410.25
2023-08-08T11:33:15.162Z,101410.13
2023-08-08T11:35:39.036Z,101404.00
2023-08-08T11:38:07.141Z,101405.22
2023-08-08T11:40:35.491Z,101401.78
2023-08-08T11:43:03.548Z,101413.59
2023-08-08T11:45:34.181Z,101411.63
2023-08-08T11:48:04.211Z,101395.00
2023-08-08T11:50:32.316Z,101413.22
2023-08-08T11:53:00.298Z,101410.13
2023-08-08T11:55:31.079Z,101410.88
2023-08-08T11:58:00.814Z,101400.78
2023-08-08T12:00:30.099Z,101415.31
2023-08-08T12:02:58.390Z,101399.31
2023-08-08T12:05:29.168Z,101405.00
2023-08-08T12:07:57.306Z,101400.19
2023-08-08T12:10:25.975Z,101411.75
2023-08-08T12:13:00.876Z,101396.34
2023-08-08T12:15:31.195Z,101414.22
2023-08-08T12:18:00.233Z,101402.00
2023-08-08T12:20:32.055Z,101405.00
2023-08-08T12:23:00.034Z,101405.97
2023-08-08T12:25:28.533Z,101408.19
2023-08-08T12:27:56.639Z,101395.50
2023-08-08T12:30:24.703Z,101401.41
2023-08-08T12:32:52.693Z,101399.22
2023-08-08T12:35:21.555Z,101389.59
2023-08-08T12:37:50.919Z,101401.28
2023-08-08T12:40:19.107Z,101401.41
2023-08-08T12:42:47.063Z,101405.41
2023-08-08T12:45:15.203Z,101412.88
2023-08-08T12:47:43.275Z,101403.28
2023-08-08T12:50:12.212Z,101411.09
2023-08-08T12:52:40.635Z,101415.28
2023-08-08T12:55:12.923Z,101425.41
2023-08-08T12:57:41.703Z,101432.44
2023-08-08T13:00:11.125Z,101431.16
2023-08-08T13:02:39.844Z,101450.19
2023-08-08T13:05:08.219Z,101440.53
2023-08-08T13:07:36.156Z,101440.03
2023-08-08T13:10:04.161Z,101435.38
2023-08-08T13:12:33.444Z,101437.94
2023-08-08T13:15:01.467Z,101447.41
2023-08-08T13:17:29.507Z,101442.47
2023-08-08T13:19:57.504Z,101436.81
2023-08-08T13:22:25.546Z,101430.53
2023-08-08T13:24:53.511Z,101435.47
2023-08-08T13:27:21.466Z,101441.50
2023-08-08T13:29:50.779Z,101457.34
2023-08-08T13:32:18.876Z,101464.97
2023-08-08T13:34:46.910Z,101473.75
2023-08-08T13:37:14.840Z,101458.19
2023-08-08T13:39:43.071Z,101465.59
2023-08-08T13:42:11.230Z,101446.53
2023-08-08T13:44:39.191Z,101454.78
2023-08-08T13:47:08.690Z,101464.38
2023-08-08T13:49:37.281Z,101476.94
2023-08-08T13:52:05.470Z,101479.63
2023-08-08T13:54:33.504Z,101464.78
2023-08-08T13:57:01.476Z,101446.41
2023-08-08T13:59:29.441Z,101429.56
2023-08-08T14:01:57.588Z,101431.44
2023-08-08T14:04:27.049Z,101410.28
2023-08-08T14:06:54.972Z,101426.13
2023-08-08T14:09:24.011Z,101433.63
2023-08-08T14:11:52.029Z,101435.25
2023-08-08T14:14:19.977Z,101456.53
2023-08-08T14:16:47.951Z,101448.03
2023-08-08T14:19:18.023Z,101446.06
2023-08-08T14:21:47.375Z,101449.50
2023-08-08T14:24:15.459Z,101450.13
2023-08-08T14:26:43.398Z,101443.84
2023-08-08T14:29:11.312Z,101443.72
2023-08-08T14:31:50.411Z,101430.06
2023-08-08T14:34:31.673Z,101430.19
2023-08-08T14:37:01.091Z,101437.22
2023-08-08T14:39:32.522Z,101433.75
2023-08-08T14:42:00.844Z,101436.59
2023-08-08T14:44:29.326Z,101442.25
2023-08-08T14:46:57.327Z,101436.59
2023-08-08T14:49:26.992Z,101444.59
2023-08-08T14:51:55.110Z,101446.94
2023-08-08T14:54:24.505Z,101447.44
2023-08-08T14:56:52.656Z,101438.94
2023-08-08T14:59:20.719Z,101433.75
2023-08-08T15:01:48.964Z,101426.16
2023-08-08T15:04:17.058Z,101426.38
2023-08-08T15:06:45.000Z,101416.91
2023-08-08T15:09:14.491Z,101418.72
2023-08-08T15:11:43.947Z,101419.19
2023-08-08T15:14:11.972Z,101420.50
2023-08-08T15:16:39.940Z,101422.59
2023-08-08T15:19:08.317Z,101419.75
2023-08-08T15:21:36.402Z,101410.34
2023-08-08T15:24:04.306Z,101427.97
2023-08-08T15:26:32.289Z,101435.59
2023-08-08T15:29:02.026Z,101431.78
2023-08-08T15:31:30.186Z,101429.66
2023-08-08T15:33:58.279Z,101431.19
2023-08-08T15:36:26.507Z,101428.16
2023-08-08T15:38:55.544Z,101439.63
2023-08-08T15:41:23.668Z,101440.81
2023-08-08T15:43:51.787Z,101440.44
2023-08-08T15:46:21.286Z,101432.47
2023-08-08T15:48:49.371Z,101419.56
2023-08-08T15:51:17.344Z,101421.41
2023-08-08T15:53:45.285Z,101423.94
2023-08-08T15:56:13.198Z,101420.34
2023-08-08T15:58:41.572Z,101432.94
2023-08-08T16:01:09.572Z,101431.00
2023-08-08T16:03:39.452Z,101431.94
2023-08-08T16:06:07.611Z,101415.97
2023-08-08T16:08:35.772Z,101429.75
2023-08-08T16:11:05.579Z,101436.94
2023-08-08T16:13:33.639Z,101444.47
2023-08-08T16:16:02.127Z,101442.41
2023-08-08T16:18:30.531Z,101451.09
2023-08-08T16:21:01.359Z,101450.50
2023-08-08T16:23:29.368Z,101455.03
2023-08-08T16:25:57.730Z,101448.28
2023-08-08T16:28:27.236Z,101446.38
2023-08-08T16:30:55.215Z,101451.13
2023-08-08T16:33:23.225Z,101450.09
2023-08-08T16:35:51.530Z,101454.50
2023-08-08T16:38:20.869Z,101446.13
2023-08-08T16:40:48.858Z,101459.38
2023-08-08T16:43:19.395Z,101423.59
2023-08-08T16:45:47.341Z,101452.78
2023-08-08T16:48:15.712Z,101452.38
2023-08-08T16:50:43.680Z,101445.16
2023-08-08T16:53:11.629Z,101446.41
2023-08-08T16:55:42.955Z,101457.38
2023-08-08T16:58:11.093Z,101446.69
2023-08-08T17:00:39.201Z,101445.06
2023-08-08T17:03:07.395Z,101457.47
2023-08-08T17:05:36.166Z,101455.59
2023-08-08T17:08:06.119Z,101453.13
2023-08-08T17:10:34.074Z,101455.81
2023-08-08T17:13:03.426Z,101452.66
2023-08-08T17:15:31.377Z,101447.63
2023-08-08T17:17:59.480Z,101447.03
2023-08-08T17:20:27.502Z,101432.41
2023-08-08T17:22:55.850Z,101439.53
2023-08-08T17:25:23.809Z,101439.38
2023-08-08T17:27:51.967Z,101427.44
2023-08-08T17:30:21.378Z,101423.22
2023-08-08T17:32:49.399Z,101439.59
2023-08-08T17:35:17.514Z,101428.13
2023-08-08T17:37:45.568Z,101436.72
2023-08-08T17:40:13.794Z,101436.81
2023-08-08T17:42:41.797Z,101445.50
2023-08-08T17:45:11.085Z,101438.56
2023-08-08T17:47:40.588Z,101446.56
2023-08-08T17:50:09.968Z,101451.56
2023-08-08T17:52:37.925Z,101458.06
2023-08-08T17:55:06.598Z,101464.69
2023-08-08T17:57:34.577Z,101458.66
2023-08-08T18:00:03.023Z,101466.84
2023-08-08T18:02:31.067Z,101464.06
2023-08-08T18:05:00.432Z,101470.56
2023-08-08T18:07:28.449Z,101467.19
2023-08-08T18:09:56.503Z,101452.97
2023-08-08T18:12:24.517Z,101462.81
2023-08-08T18:14:54.245Z,101476.41
2023-08-08T18:17:23.309Z,101485.72
2023-08-08T18:19:51.411Z,101479.78
2023-08-08T18:22:20.722Z,101465.78
2023-08-08T18:24:48.679Z,101463.09
2023-08-08T18:27:17.387Z,101452.63
2023-08-08T18:29:45.509Z,101466.13
2023-08-08T18:32:13.431Z,101468.91
2023-08-08T18:34:41.486Z,101447.25
2023-08-08T18:37:09.474Z,101462.03
2023-08-08T18:39:38.852Z,101457.81
2023-08-08T18:42:07.518Z,101463.22
2023-08-08T18:44:35.502Z,101471.34
2023-08-08T18:47:03.399Z,101461.59
2023-08-08T18:49:31.767Z,101468.97
2023-08-08T18:51:59.999Z,101474.25
2023-08-08T18:54:28.611Z,101475.44
2023-08-08T18:56:57.889Z,101476.66
2023-08-08T18:59:26.031Z,101478.34
2023-08-08T19:01:54.253Z,101475.78
2023-08-08T19:04:22.381Z,101475.03
2023-08-08T19:06:50.576Z,101479.69
2023-08-08T19:09:20.203Z,101472.66
2023-08-08T19:11:48.233Z,101472.88
2023-08-08T19:14:17.692Z,101484.66
2023-08-08T19:16:45.634Z,101474.81
2023-08-08T19:19:14.094Z,101475.81
2023-08-08T19:21:42.169Z,101482.06
2023-08-08T19:24:10.796Z,101481.09
2023-08-08T19:26:38.806Z,101473.00
2023-08-08T19:29:06.805Z,101481.09
2023-08-08T19:31:36.436Z,101484.84
2023-08-08T19:34:06.787Z,101480.44
2023-08-08T19:36:35.552Z,101483.16
2023-08-08T19:39:03.687Z,101491.25
2023-08-08T19:41:31.647Z,101497.72
2023-08-08T19:43:59.649Z,101492.31
2023-08-08T19:46:27.677Z,101496.66
2023-08-08T19:48:57.175Z,101501.16
2023-08-08T19:51:25.201Z,101510.03
2023-08-08T19:53:53.273Z,101509.91
2023-08-08T19:56:21.261Z,101509.16
2023-08-08T19:58:49.554Z,101504.75
2023-08-08T20:01:17.939Z,101505.59
2023-08-08T20:03:46.029Z,101503.88
2023-08-08T20:06:15.450Z,101511.97
2023-08-08T20:08:43.611Z,101515.75
2023-08-08T20:11:11.922Z,101524.84
2023-08-08T20:13:39.953Z,101513.56
2023-08-08T20:16:08.077Z,101515.81
2023-08-08T20:18:36.212Z,101519.50
2023-08-08T20:21:04.205Z,101509.34
2023-08-08T20:23:33.591Z,101528.13
2023-08-08T20:26:03.585Z,101526.50
2023-08-08T20:28:31.721Z,101533.94
2023-08-08T20:30:59.721Z,101543.78
2023-08-08T20:33:27.799Z,101541.41
2023-08-08T20:35:55.729Z,101546.88
2023-08-08T20:38:23.748Z,101545.38
2023-08-08T20:40:53.089Z,101547.19
2023-08-08T20:43:21.063Z,101551.72
2023-08-08T20:45:49.004Z,101547.41
2023-08-08T20:48:17.046Z,101553.88
2023-08-08T20:50:44.959Z,101553.88
2023-08-08T20:53:14.003Z,101553.88
2023-08-08T20:55:42.031Z,101533.56
2023-08-08T20:58:11.408Z,101576.34
2023-08-08T21:00:39.368Z,101575.22
2023-08-08T21:03:08.166Z,101551.38
2023-08-08T21:05:36.253Z,101573.53
2023-08-08T21:08:04.803Z,101565.13
2023-08-08T21:10:32.973Z,101566.75
2023-08-08T21:13:01.108Z,101553.66
2023-08-08T21:15:30.395Z,101564.88
2023-08-08T21:17:59.056Z,101568.00
2023-08-08T21:20:27.169Z,101574.72
2023-08-08T21:22:55.109Z,101578.59
2023-08-08T21:25:23.295Z,101576.78
2023-08-08T21:27:51.339Z,101577.84
2023-08-08T21:30:19.270Z,101588.53
2023-08-08T21:32:49.422Z,101587.75
2023-08-08T21:35:17.710Z,101584.31
2023-08-08T21:37:45.655Z,101583.44
2023-08-08T21:40:13.727Z,101584.41
2023-08-08T21:42:41.727Z,101588.06
2023-08-08T21:45:10.604Z,101594.53
2023-08-08T21:47:39.519Z,101582.44
2023-08-08T21:50:09.952Z,101594.53
2023-08-08T21:52:37.951Z,101601.66
2023-08-08T21:55:06.588Z,101593.34
2023-08-08T21:57:34.526Z,101600.50
2023-08-08T22:00:02.522Z,101598.56
2023-08-08T22:02:30.554Z,101597.56
2023-08-08T22:04:58.492Z,101594.03
2023-08-08T22:07:27.790Z,101592.41
2023-08-08T22:09:55.884Z,101589.59
2023-08-08T22:12:23.849Z,101585.06
2023-08-08T22:14:51.771Z,101582.47
2023-08-08T22:17:19.694Z,101579.88
2023-08-08T22:19:47.694Z,101580.94
2023-08-08T22:22:15.606Z,101589.91
2023-08-08T22:24:44.925Z,101579.97
2023-08-08T22:27:12.894Z,101583.56
2023-08-08T22:29:40.918Z,101585.25
2023-08-08T22:32:08.850Z,101582.56
2023-08-08T22:34:36.813Z,101579.78
2023-08-08T22:37:04.817Z,101571.91
2023-08-08T22:39:32.778Z,101583.31
2023-08-08T22:42:02.146Z,101582.47
2023-08-08T22:44:30.051Z,101578.16
2023-08-08T22:46:57.987Z,101573.72
2023-08-08T22:49:25.856Z,101571.78
2023-08-08T22:51:53.757Z,101572.53
2023-08-08T22:54:22.037Z,101577.94
2023-08-08T22:56:49.954Z,101572.44
2023-08-08T22:59:19.249Z,101573.53
2023-08-08T23:01:47.346Z,101569.19
2023-08-08T23:04:15.370Z,101572.66
2023-08-08T23:06:43.298Z,101569.06
2023-08-08T23:09:11.458Z,101571.47
2023-08-08T23:11:39.402Z,101576.66
2023-08-08T23:14:07.315Z,101579.34
2023-08-08T23:16:36.630Z,101575.91
2023-08-08T23:19:04.851Z,101569.44
2023-08-08T23:21:32.829Z,101567.81
2023-08-08T23:24:00.809Z,101583.75
2023-08-08T23:26:28.792Z,101576.66
2023-08-08T23:28:57.049Z,101578.38
2023-08-08T23:31:25.007Z,101579.25
2023-08-08T23:33:54.409Z,101586.47
2023-08-08T23:36:22.618Z,101583.75
2023-08-08T23:38:50.574Z,101581.94
2023-08-08T23:41:18.915Z,101589.94
2023-08-08T23:43:46.814Z,101594.47
2023-08-08T23:46:14.797Z,101588.84
2023-08-08T23:48:43.416Z,101594.34
2023-08-08T23:51:13.197Z,101597.16
2023-08-08T23:53:41.112Z,101589.16
2023-08-08T23:56:09.033Z,101591.09
2023-08-08T23:58:36.921Z,101592.09
